sensor_id;sensor_type;location;lat;lon;timestamp;temperature;humidity
64888;DHT22;51386;53.082;8.816;2023-07-02T00:00:04;19.40;82.90
64888;DHT22;51386;53.082;8.816;2023-07-02T00:02:32;19.40;83.30
64888;DHT22;51386;53.082;8.816;2023-07-02T00:05:00;19.40;82.60
64888;DHT22;51386;53.082;8.816;2023-07-02T00:07:28;19.40;82.50
64888;DHT22;51386;53.082;8.816;2023-07-02T00:09:55;19.40;82.50
64888;DHT22;51386;53.082;8.816;2023-07-02T00:12:22;19.40;82.50
64888;DHT22;51386;53.082;8.816;2023-07-02T00:14:49;19.40;82.60
64888;DHT22;51386;53.082;8.816;2023-07-02T00:17:19;19.50;82.60
64888;DHT22;51386;53.082;8.816;2023-07-02T00:19:46;19.40;82.40
64888;DHT22;51386;53.082;8.816;2023-07-02T00:22:15;19.40;82.40
64888;DHT22;51386;53.082;8.816;2023-07-02T00:24:42;19.40;82.30
64888;DHT22;51386;53.082;8.816;2023-07-02T00:27:09;19.40;82.30
64888;DHT22;51386;53.082;8.816;2023-07-02T00:29:36;19.40;82.10
64888;DHT22;51386;53.082;8.816;2023-07-02T00:32:04;19.40;82.10
64888;DHT22;51386;53.082;8.816;2023-07-02T00:34:32;19.40;82.10
64888;DHT22;51386;53.082;8.816;2023-07-02T00:36:59;19.40;82.10
64888;DHT22;51386;53.082;8.816;2023-07-02T00:39:27;19.50;82.20
64888;DHT22;51386;53.082;8.816;2023-07-02T00:41:54;19.40;82.00
64888;DHT22;51386;53.082;8.816;2023-07-02T00:44:27;19.50;82.00
64888;DHT22;51386;53.082;8.816;2023-07-02T00:46:53;19.50;82.00
64888;DHT22;51386;53.082;8.816;2023-07-02T00:49:21;19.50;82.00
64888;DHT22;51386;53.082;8.816;2023-07-02T00:51:49;19.50;82.00
64888;DHT22;51386;53.082;8.816;2023-07-02T00:54:16;19.50;82.00
64888;DHT22;51386;53.082;8.816;2023-07-02T00:56:44;19.50;82.60
64888;DHT22;51386;53.082;8.816;2023-07-02T00:59:12;19.40;81.60
64888;DHT22;51386;53.082;8.816;2023-07-02T01:01:39;19.50;81.40
64888;DHT22;51386;53.082;8.816;2023-07-02T01:04:07;19.50;81.40
64888;DHT22;51386;53.082;8.816;2023-07-02T01:06:39;19.50;81.30
64888;DHT22;51386;53.082;8.816;2023-07-02T01:09:07;19.50;81.30
64888;DHT22;51386;53.082;8.816;2023-07-02T01:11:39;19.50;81.30
64888;DHT22;51386;53.082;8.816;2023-07-02T01:14:12;19.50;81.30
64888;DHT22;51386;53.082;8.816;2023-07-02T01:16:42;19.50;81.30
64888;DHT22;51386;53.082;8.816;2023-07-02T01:19:11;19.40;81.40
64888;DHT22;51386;53.082;8.816;2023-07-02T01:21:47;19.50;81.40
64888;DHT22;51386;53.082;8.816;2023-07-02T01:24:15;19.50;81.40
64888;DHT22;51386;53.082;8.816;2023-07-02T01:26:43;19.50;81.30
64888;DHT22;51386;53.082;8.816;2023-07-02T01:29:15;19.50;81.40
64888;DHT22;51386;53.082;8.816;2023-07-02T01:31:43;19.40;81.40
64888;DHT22;51386;53.082;8.816;2023-07-02T01:34:11;19.40;81.20
64888;DHT22;51386;53.082;8.816;2023-07-02T01:36:39;19.40;81.20
64888;DHT22;51386;53.082;8.816;2023-07-02T01:39:08;19.50;81.20
64888;DHT22;51386;53.082;8.816;2023-07-02T01:41:37;19.50;81.10
64888;DHT22;51386;53.082;8.816;2023-07-02T01:44:09;19.40;81.00
64888;DHT22;51386;53.082;8.816;2023-07-02T01:46:36;19.40;80.70
64888;DHT22;51386;53.082;8.816;2023-07-02T01:49:03;19.40;80.70
64888;DHT22;51386;53.082;8.816;2023-07-02T01:51:31;19.40;80.80
64888;DHT22;51386;53.082;8.816;2023-07-02T01:53:58;19.50;80.80
64888;DHT22;51386;53.082;8.816;2023-07-02T01:56:26;19.40;80.50
64888;DHT22;51386;53.082;8.816;2023-07-02T01:58:53;19.50;80.40
64888;DHT22;51386;53.082;8.816;2023-07-02T02:01:20;19.40;80.20
64888;DHT22;51386;53.082;8.816;2023-07-02T02:03:47;19.40;80.00
64888;DHT22;51386;53.082;8.816;2023-07-02T02:06:14;19.40;79.90
64888;DHT22;51386;53.082;8.816;2023-07-02T02:08:41;19.40;79.90
64888;DHT22;51386;53.082;8.816;2023-07-02T02:11:08;19.40;79.80
64888;DHT22;51386;53.082;8.816;2023-07-02T02:13:36;19.40;79.80
64888;DHT22;51386;53.082;8.816;2023-07-02T02:16:03;19.40;79.60
64888;DHT22;51386;53.082;8.816;2023-07-02T02:18:30;19.30;78.90
64888;DHT22;51386;53.082;8.816;2023-07-02T02:21:11;19.30;78.80
64888;DHT22;51386;53.082;8.816;2023-07-02T02:23:38;19.30;78.70
64888;DHT22;51386;53.082;8.816;2023-07-02T02:26:05;19.30;78.50
64888;DHT22;51386;53.082;8.816;2023-07-02T02:28:32;19.20;78.20
64888;DHT22;51386;53.082;8.816;2023-07-02T02:31:00;19.20;78.20
64888;DHT22;51386;53.082;8.816;2023-07-02T02:33:28;19.20;78.20
64888;DHT22;51386;53.082;8.816;2023-07-02T02:35:55;19.20;78.40
64888;DHT22;51386;53.082;8.816;2023-07-02T02:38:23;19.10;78.40
64888;DHT22;51386;53.082;8.816;2023-07-02T02:40:49;19.10;78.50
64888;DHT22;51386;53.082;8.816;2023-07-02T02:43:16;19.10;78.60
64888;DHT22;51386;53.082;8.816;2023-07-02T02:45:43;19.10;78.70
64888;DHT22;51386;53.082;8.816;2023-07-02T02:48:12;19.10;78.70
64888;DHT22;51386;53.082;8.816;2023-07-02T02:50:39;19.10;78.80
64888;DHT22;51386;53.082;8.816;2023-07-02T02:53:09;19.10;78.50
64888;DHT22;51386;53.082;8.816;2023-07-02T02:55:37;19.10;78.50
64888;DHT22;51386;53.082;8.816;2023-07-02T02:58:04;19.10;78.60
64888;DHT22;51386;53.082;8.816;2023-07-02T03:00:31;19.10;78.50
64888;DHT22;51386;53.082;8.816;2023-07-02T03:02:58;19.10;78.50
64888;DHT22;51386;53.082;8.816;2023-07-02T03:05:27;19.10;78.40
64888;DHT22;51386;53.082;8.816;2023-07-02T03:07:54;19.10;78.30
64888;DHT22;51386;53.082;8.816;2023-07-02T03:10:21;19.10;78.50
64888;DHT22;51386;53.082;8.816;2023-07-02T03:12:48;19.00;78.50
64888;DHT22;51386;53.082;8.816;2023-07-02T03:15:15;19.00;78.60
64888;DHT22;51386;53.082;8.816;2023-07-02T03:17:44;19.00;78.90
64888;DHT22;51386;53.082;8.816;2023-07-02T03:20:11;19.00;78.80
64888;DHT22;51386;53.082;8.816;2023-07-02T03:22:40;19.00;78.80
64888;DHT22;51386;53.082;8.816;2023-07-02T03:25:07;19.00;78.80
64888;DHT22;51386;53.082;8.816;2023-07-02T03:27:35;19.00;78.90
64888;DHT22;51386;53.082;8.816;2023-07-02T03:30:03;18.90;78.90
64888;DHT22;51386;53.082;8.816;2023-07-02T03:32:31;18.90;79.00
64888;DHT22;51386;53.082;8.816;2023-07-02T03:34:58;18.90;79.00
64888;DHT22;51386;53.082;8.816;2023-07-02T03:37:25;18.90;78.90
64888;DHT22;51386;53.082;8.816;2023-07-02T03:39:54;18.80;78.80
64888;DHT22;51386;53.082;8.816;2023-07-02T03:42:21;18.80;78.90
64888;DHT22;51386;53.082;8.816;2023-07-02T03:44:48;18.80;79.10
64888;DHT22;51386;53.082;8.816;2023-07-02T03:47:14;18.80;78.80
64888;DHT22;51386;53.082;8.816;2023-07-02T03:49:42;18.70;78.80
64888;DHT22;51386;53.082;8.816;2023-07-02T03:52:09;18.70;79.00
64888;DHT22;51386;53.082;8.816;2023-07-02T03:54:39;18.70;79.00
64888;DHT22;51386;53.082;8.816;2023-07-02T03:57:07;18.70;79.10
64888;DHT22;51386;53.082;8.816;2023-07-02T03:59:34;18.60;79.10
64888;DHT22;51386;53.082;8.816;2023-07-02T04:02:01;18.60;79.10
64888;DHT22;51386;53.082;8.816;2023-07-02T04:04:29;18.60;79.10
64888;DHT22;51386;53.082;8.816;2023-07-02T04:06:56;18.60;78.90
64888;DHT22;51386;53.082;8.816;2023-07-02T04:09:23;18.60;78.80
64888;DHT22;51386;53.082;8.816;2023-07-02T04:11:50;18.60;78.90
64888;DHT22;51386;53.082;8.816;2023-07-02T04:14:18;18.60;78.90
64888;DHT22;51386;53.082;8.816;2023-07-02T04:16:45;18.60;79.00
64888;DHT22;51386;53.082;8.816;2023-07-02T04:19:12;18.60;78.90
64888;DHT22;51386;53.082;8.816;2023-07-02T04:21:39;18.60;79.00
64888;DHT22;51386;53.082;8.816;2023-07-02T04:24:06;18.60;79.00
64888;DHT22;51386;53.082;8.816;2023-07-02T04:26:34;18.60;79.10
64888;DHT22;51386;53.082;8.816;2023-07-02T04:29:24;18.60;79.10
64888;DHT22;51386;53.082;8.816;2023-07-02T04:31:51;18.60;79.00
64888;DHT22;51386;53.082;8.816;2023-07-02T04:34:18;18.60;78.90
64888;DHT22;51386;53.082;8.816;2023-07-02T04:36:48;18.60;78.80
64888;DHT22;51386;53.082;8.816;2023-07-02T04:39:19;18.60;78.90
64888;DHT22;51386;53.082;8.816;2023-07-02T04:41:46;18.60;79.00
64888;DHT22;51386;53.082;8.816;2023-07-02T04:44:13;18.60;78.90
64888;DHT22;51386;53.082;8.816;2023-07-02T04:46:41;18.60;78.90
64888;DHT22;51386;53.082;8.816;2023-07-02T04:49:08;18.60;78.90
64888;DHT22;51386;53.082;8.816;2023-07-02T04:51:35;18.60;78.70
64888;DHT22;51386;53.082;8.816;2023-07-02T04:54:02;18.60;78.70
64888;DHT22;51386;53.082;8.816;2023-07-02T04:56:29;18.60;78.50
64888;DHT22;51386;53.082;8.816;2023-07-02T04:58:56;18.50;78.30
64888;DHT22;51386;53.082;8.816;2023-07-02T05:01:23;18.50;78.30
64888;DHT22;51386;53.082;8.816;2023-07-02T05:03:52;18.60;78.40
64888;DHT22;51386;53.082;8.816;2023-07-02T05:06:19;18.60;78.30
64888;DHT22;51386;53.082;8.816;2023-07-02T05:08:46;18.60;78.00
64888;DHT22;51386;53.082;8.816;2023-07-02T05:11:12;18.60;78.00
64888;DHT22;51386;53.082;8.816;2023-07-02T05:13:39;18.60;77.90
64888;DHT22;51386;53.082;8.816;2023-07-02T05:16:06;18.70;77.90
64888;DHT22;51386;53.082;8.816;2023-07-02T05:18:34;18.70;77.60
64888;DHT22;51386;53.082;8.816;2023-07-02T05:21:02;18.70;77.50
64888;DHT22;51386;53.082;8.816;2023-07-02T05:23:29;18.70;77.10
64888;DHT22;51386;53.082;8.816;2023-07-02T05:25:56;18.70;76.70
64888;DHT22;51386;53.082;8.816;2023-07-02T05:28:24;18.80;76.80
64888;DHT22;51386;53.082;8.816;2023-07-02T05:30:51;18.80;76.60
64888;DHT22;51386;53.082;8.816;2023-07-02T05:33:20;18.80;76.50
64888;DHT22;51386;53.082;8.816;2023-07-02T05:35:48;18.80;76.50
64888;DHT22;51386;53.082;8.816;2023-07-02T05:38:17;18.80;76.60
64888;DHT22;51386;53.082;8.816;2023-07-02T05:40:45;18.80;76.50
64888;DHT22;51386;53.082;8.816;2023-07-02T05:43:13;18.80;76.10
64888;DHT22;51386;53.082;8.816;2023-07-02T05:45:40;18.80;75.90
64888;DHT22;51386;53.082;8.816;2023-07-02T05:48:07;18.90;75.80
64888;DHT22;51386;53.082;8.816;2023-07-02T05:50:34;18.90;75.80
64888;DHT22;51386;53.082;8.816;2023-07-02T05:53:01;18.90;76.00
64888;DHT22;51386;53.082;8.816;2023-07-02T05:55:29;18.90;75.70
64888;DHT22;51386;53.082;8.816;2023-07-02T05:57:56;19.00;75.80
64888;DHT22;51386;53.082;8.816;2023-07-02T06:00:28;19.00;75.70
64888;DHT22;51386;53.082;8.816;2023-07-02T06:02:55;19.00;74.80
64888;DHT22;51386;53.082;8.816;2023-07-02T06:05:22;19.00;74.60
64888;DHT22;51386;53.082;8.816;2023-07-02T06:07:49;19.10;74.70
64888;DHT22;51386;53.082;8.816;2023-07-02T06:10:16;19.10;74.60
64888;DHT22;51386;53.082;8.816;2023-07-02T06:12:45;19.10;74.20
64888;DHT22;51386;53.082;8.816;2023-07-02T06:15:12;19.10;73.80
64888;DHT22;51386;53.082;8.816;2023-07-02T06:17:38;19.20;73.90
64888;DHT22;51386;53.082;8.816;2023-07-02T06:20:07;19.20;73.90
64888;DHT22;51386;53.082;8.816;2023-07-02T06:22:34;19.20;73.50
64888;DHT22;51386;53.082;8.816;2023-07-02T06:25:01;19.20;73.50
64888;DHT22;51386;53.082;8.816;2023-07-02T06:27:31;19.30;73.50
64888;DHT22;51386;53.082;8.816;2023-07-02T06:30:00;19.30;72.10
64888;DHT22;51386;53.082;8.816;2023-07-02T06:32:27;19.30;72.10
64888;DHT22;51386;53.082;8.816;2023-07-02T06:34:54;19.40;71.50
64888;DHT22;51386;53.082;8.816;2023-07-02T06:37:21;19.50;71.10
64888;DHT22;51386;53.082;8.816;2023-07-02T06:39:48;19.60;70.70
64888;DHT22;51386;53.082;8.816;2023-07-02T06:42:15;19.60;71.60
64888;DHT22;51386;53.082;8.816;2023-07-02T06:44:42;19.60;70.30
64888;DHT22;51386;53.082;8.816;2023-07-02T06:47:10;19.70;70.10
64888;DHT22;51386;53.082;8.816;2023-07-02T06:49:37;19.80;69.50
64888;DHT22;51386;53.082;8.816;2023-07-02T06:52:04;19.80;68.80
64888;DHT22;51386;53.082;8.816;2023-07-02T06:54:32;19.90;68.50
64888;DHT22;51386;53.082;8.816;2023-07-02T06:56:59;19.90;68.30
64888;DHT22;51386;53.082;8.816;2023-07-02T06:59:26;19.90;68.00
64888;DHT22;51386;53.082;8.816;2023-07-02T07:01:53;19.90;67.70
64888;DHT22;51386;53.082;8.816;2023-07-02T07:04:21;20.00;68.00
64888;DHT22;51386;53.082;8.816;2023-07-02T07:06:48;20.00;68.50
64888;DHT22;51386;53.082;8.816;2023-07-02T07:09:15;20.10;68.20
64888;DHT22;51386;53.082;8.816;2023-07-02T07:11:44;20.10;67.10
64888;DHT22;51386;53.082;8.816;2023-07-02T07:14:11;20.20;67.10
64888;DHT22;51386;53.082;8.816;2023-07-02T07:16:38;20.30;66.70
64888;DHT22;51386;53.082;8.816;2023-07-02T07:19:05;20.30;66.70
64888;DHT22;51386;53.082;8.816;2023-07-02T07:21:35;20.30;65.20
64888;DHT22;51386;53.082;8.816;2023-07-02T07:24:02;20.30;64.70
64888;DHT22;51386;53.082;8.816;2023-07-02T07:26:29;20.30;63.70
64888;DHT22;51386;53.082;8.816;2023-07-02T07:28:56;20.30;62.90
64888;DHT22;51386;53.082;8.816;2023-07-02T07:31:24;20.30;62.50
64888;DHT22;51386;53.082;8.816;2023-07-02T07:33:51;20.40;63.00
64888;DHT22;51386;53.082;8.816;2023-07-02T07:36:19;20.40;61.60
64888;DHT22;51386;53.082;8.816;2023-07-02T07:38:47;20.40;61.10
64888;DHT22;51386;53.082;8.816;2023-07-02T07:41:14;20.40;60.20
64888;DHT22;51386;53.082;8.816;2023-07-02T07:43:41;20.50;60.20
64888;DHT22;51386;53.082;8.816;2023-07-02T07:46:08;20.60;60.40
64888;DHT22;51386;53.082;8.816;2023-07-02T07:48:35;20.60;60.20
64888;DHT22;51386;53.082;8.816;2023-07-02T07:51:02;20.70;59.80
64888;DHT22;51386;53.082;8.816;2023-07-02T07:53:29;20.70;59.90
64888;DHT22;51386;53.082;8.816;2023-07-02T07:55:58;20.70;59.30
64888;DHT22;51386;53.082;8.816;2023-07-02T07:58:25;20.70;59.50
64888;DHT22;51386;53.082;8.816;2023-07-02T08:00:52;20.80;59.50
64888;DHT22;51386;53.082;8.816;2023-07-02T08:03:19;20.80;58.40
64888;DHT22;51386;53.082;8.816;2023-07-02T08:05:46;20.80;58.10
64888;DHT22;51386;53.082;8.816;2023-07-02T08:08:13;20.80;58.60
64888;DHT22;51386;53.082;8.816;2023-07-02T08:10:40;21.00;59.10
64888;DHT22;51386;53.082;8.816;2023-07-02T08:13:09;20.90;56.70
64888;DHT22;51386;53.082;8.816;2023-07-02T08:15:37;21.00;56.30
64888;DHT22;51386;53.082;8.816;2023-07-02T08:18:04;21.00;56.50
64888;DHT22;51386;53.082;8.816;2023-07-02T08:20:34;21.00;56.50
64888;DHT22;51386;53.082;8.816;2023-07-02T08:23:01;21.00;56.10
64888;DHT22;51386;53.082;8.816;2023-07-02T08:25:28;21.20;56.00
64888;DHT22;51386;53.082;8.816;2023-07-02T08:27:55;21.50;55.50
64888;DHT22;51386;53.082;8.816;2023-07-02T08:30:23;21.80;55.00
64888;DHT22;51386;53.082;8.816;2023-07-02T08:32:52;22.20;53.70
64888;DHT22;51386;53.082;8.816;2023-07-02T08:35:22;22.60;53.30
64888;DHT22;51386;53.082;8.816;2023-07-02T08:37:49;22.80;51.20
64888;DHT22;51386;53.082;8.816;2023-07-02T08:40:16;23.00;48.30
64888;DHT22;51386;53.082;8.816;2023-07-02T08:42:45;23.30;47.00
64888;DHT22;51386;53.082;8.816;2023-07-02T08:45:16;23.70;47.20
64888;DHT22;51386;53.082;8.816;2023-07-02T08:47:45;24.30;46.00
64888;DHT22;51386;53.082;8.816;2023-07-02T08:50:13;24.70;44.10
64888;DHT22;51386;53.082;8.816;2023-07-02T08:52:40;25.20;43.90
64888;DHT22;51386;53.082;8.816;2023-07-02T08:55:09;25.70;43.30
64888;DHT22;51386;53.082;8.816;2023-07-02T08:57:36;26.30;42.50
64888;DHT22;51386;53.082;8.816;2023-07-02T09:00:08;26.80;40.40
64888;DHT22;51386;53.082;8.816;2023-07-02T09:02:37;27.00;39.20
64888;DHT22;51386;53.082;8.816;2023-07-02T09:05:06;27.20;40.00
64888;DHT22;51386;53.082;8.816;2023-07-02T09:07:44;27.20;38.60
64888;DHT22;51386;53.082;8.816;2023-07-02T09:10:24;26.80;39.10
64888;DHT22;51386;53.082;8.816;2023-07-02T09:13:03;26.30;40.20
64888;DHT22;51386;53.082;8.816;2023-07-02T09:15:35;25.60;42.00
64888;DHT22;51386;53.082;8.816;2023-07-02T09:18:14;25.00;43.50
64888;DHT22;51386;53.082;8.816;2023-07-02T09:20:44;24.50;45.30
64888;DHT22;51386;53.082;8.816;2023-07-02T09:23:13;24.10;46.40
64888;DHT22;51386;53.082;8.816;2023-07-02T09:25:40;23.90;47.10
64888;DHT22;51386;53.082;8.816;2023-07-02T09:28:14;23.90;47.60
64888;DHT22;51386;53.082;8.816;2023-07-02T09:30:52;24.10;47.40
64888;DHT22;51386;53.082;8.816;2023-07-02T09:33:20;24.50;46.40
64888;DHT22;51386;53.082;8.816;2023-07-02T09:35:49;25.10;46.40
64888;DHT22;51386;53.082;8.816;2023-07-02T09:38:18;25.70;45.90
64888;DHT22;51386;53.082;8.816;2023-07-02T09:40:47;26.30;43.00
64888;DHT22;51386;53.082;8.816;2023-07-02T09:43:16;26.60;41.40
64888;DHT22;51386;53.082;8.816;2023-07-02T09:45:46;26.90;40.50
64888;DHT22;51386;53.082;8.816;2023-07-02T09:48:15;27.00;40.90
64888;DHT22;51386;53.082;8.816;2023-07-02T09:50:45;27.00;40.80
64888;DHT22;51386;53.082;8.816;2023-07-02T09:53:15;27.00;39.10
64888;DHT22;51386;53.082;8.816;2023-07-02T09:55:43;27.20;38.30
64888;DHT22;51386;53.082;8.816;2023-07-02T09:58:11;27.40;37.90
64888;DHT22;51386;53.082;8.816;2023-07-02T10:00:41;27.70;37.90
64888;DHT22;51386;53.082;8.816;2023-07-02T10:03:08;28.10;36.90
64888;DHT22;51386;53.082;8.816;2023-07-02T10:05:35;28.40;35.80
64888;DHT22;51386;53.082;8.816;2023-07-02T10:08:12;28.70;34.80
64888;DHT22;51386;53.082;8.816;2023-07-02T10:10:44;29.00;33.70
64888;DHT22;51386;53.082;8.816;2023-07-02T10:13:11;29.20;33.90
64888;DHT22;51386;53.082;8.816;2023-07-02T10:15:38;29.40;33.90
64888;DHT22;51386;53.082;8.816;2023-07-02T10:18:06;29.60;33.70
64888;DHT22;51386;53.082;8.816;2023-07-02T10:20:35;29.50;32.10
64888;DHT22;51386;53.082;8.816;2023-07-02T10:23:05;29.00;32.00
64888;DHT22;51386;53.082;8.816;2023-07-02T10:25:36;28.50;31.30
64888;DHT22;51386;53.082;8.816;2023-07-02T10:28:14;28.10;32.30
64888;DHT22;51386;53.082;8.816;2023-07-02T10:30:42;27.50;33.60
64888;DHT22;51386;53.082;8.816;2023-07-02T10:33:10;27.00;34.40
64888;DHT22;51386;53.082;8.816;2023-07-02T10:35:39;26.60;35.50
64888;DHT22;51386;53.082;8.816;2023-07-02T10:38:13;26.10;35.90
64888;DHT22;51386;53.082;8.816;2023-07-02T10:40:45;25.70;37.00
64888;DHT22;51386;53.082;8.816;2023-07-02T10:43:13;25.30;38.30
64888;DHT22;51386;53.082;8.816;2023-07-02T10:45:40;25.00;38.80
64888;DHT22;51386;53.082;8.816;2023-07-02T10:48:09;24.70;38.70
64888;DHT22;51386;53.082;8.816;2023-07-02T10:50:37;24.50;39.20
64888;DHT22;51386;53.082;8.816;2023-07-02T10:53:04;24.40;39.80
64888;DHT22;51386;53.082;8.816;2023-07-02T10:55:31;24.30;39.70
64888;DHT22;51386;53.082;8.816;2023-07-02T10:58:07;24.20;40.30
64888;DHT22;51386;53.082;8.816;2023-07-02T11:00:43;24.00;39.70
64888;DHT22;51386;53.082;8.816;2023-07-02T11:03:17;23.90;40.50
64888;DHT22;51386;53.082;8.816;2023-07-02T11:05:46;23.70;41.20
64888;DHT22;51386;53.082;8.816;2023-07-02T11:08:15;23.50;41.50
64888;DHT22;51386;53.082;8.816;2023-07-02T11:10:43;23.40;42.00
64888;DHT22;51386;53.082;8.816;2023-07-02T11:13:12;23.30;42.50
64888;DHT22;51386;53.082;8.816;2023-07-02T11:15:40;23.30;43.30
64888;DHT22;51386;53.082;8.816;2023-07-02T11:18:14;23.30;43.70
64888;DHT22;51386;53.082;8.816;2023-07-02T11:20:43;23.30;44.00
64888;DHT22;51386;53.082;8.816;2023-07-02T11:23:18;23.30;44.40
64888;DHT22;51386;53.082;8.816;2023-07-02T11:25:55;23.40;44.20
64888;DHT22;51386;53.082;8.816;2023-07-02T11:28:25;23.40;44.60
64888;DHT22;51386;53.082;8.816;2023-07-02T11:30:54;23.40;44.70
64888;DHT22;51386;53.082;8.816;2023-07-02T11:33:32;23.40;45.00
64888;DHT22;51386;53.082;8.816;2023-07-02T11:36:00;23.30;43.90
64888;DHT22;51386;53.082;8.816;2023-07-02T11:38:27;23.30;43.50
64888;DHT22;51386;53.082;8.816;2023-07-02T11:40:54;23.30;43.40
64888;DHT22;51386;53.082;8.816;2023-07-02T11:43:21;23.30;43.60
64888;DHT22;51386;53.082;8.816;2023-07-02T11:45:50;23.40;43.90
64888;DHT22;51386;53.082;8.816;2023-07-02T11:48:17;23.40;43.90
64888;DHT22;51386;53.082;8.816;2023-07-02T11:50:44;23.30;44.10
64888;DHT22;51386;53.082;8.816;2023-07-02T11:53:11;23.30;44.10
64888;DHT22;51386;53.082;8.816;2023-07-02T11:55:38;23.20;44.10
64888;DHT22;51386;53.082;8.816;2023-07-02T11:58:05;23.20;43.30
64888;DHT22;51386;53.082;8.816;2023-07-02T12:00:32;23.30;43.10
64888;DHT22;51386;53.082;8.816;2023-07-02T12:03:01;23.40;42.90
64888;DHT22;51386;53.082;8.816;2023-07-02T12:05:28;23.50;43.30
64888;DHT22;51386;53.082;8.816;2023-07-02T12:07:54;23.40;43.30
64888;DHT22;51386;53.082;8.816;2023-07-02T12:10:21;23.50;43.30
64888;DHT22;51386;53.082;8.816;2023-07-02T12:12:48;23.50;43.50
64888;DHT22;51386;53.082;8.816;2023-07-02T12:15:15;23.50;42.90
64888;DHT22;51386;53.082;8.816;2023-07-02T12:17:42;23.50;43.30
64888;DHT22;51386;53.082;8.816;2023-07-02T12:20:11;23.50;43.80
64888;DHT22;51386;53.082;8.816;2023-07-02T12:22:38;23.50;44.00
64888;DHT22;51386;53.082;8.816;2023-07-02T12:25:06;23.50;42.90
64888;DHT22;51386;53.082;8.816;2023-07-02T12:27:33;23.60;42.30
64888;DHT22;51386;53.082;8.816;2023-07-02T12:30:00;23.60;42.60
64888;DHT22;51386;53.082;8.816;2023-07-02T12:32:27;23.70;42.90
64888;DHT22;51386;53.082;8.816;2023-07-02T12:34:54;23.70;43.90
64888;DHT22;51386;53.082;8.816;2023-07-02T12:37:23;23.70;44.60
64888;DHT22;51386;53.082;8.816;2023-07-02T12:39:50;23.80;43.80
64888;DHT22;51386;53.082;8.816;2023-07-02T12:42:17;23.80;43.90
64888;DHT22;51386;53.082;8.816;2023-07-02T12:44:44;23.80;44.50
64888;DHT22;51386;53.082;8.816;2023-07-02T12:47:11;23.80;44.30
64888;DHT22;51386;53.082;8.816;2023-07-02T12:49:38;23.80;44.30
64888;DHT22;51386;53.082;8.816;2023-07-02T12:52:05;23.80;44.80
64888;DHT22;51386;53.082;8.816;2023-07-02T12:54:34;23.70;45.00
64888;DHT22;51386;53.082;8.816;2023-07-02T12:57:00;23.80;45.30
64888;DHT22;51386;53.082;8.816;2023-07-02T12:59:27;23.80;44.70
64888;DHT22;51386;53.082;8.816;2023-07-02T13:01:54;23.80;44.40
64888;DHT22;51386;53.082;8.816;2023-07-02T13:04:21;23.70;44.10
64888;DHT22;51386;53.082;8.816;2023-07-02T13:06:49;23.70;43.80
64888;DHT22;51386;53.082;8.816;2023-07-02T13:09:15;23.70;44.30
64888;DHT22;51386;53.082;8.816;2023-07-02T13:11:44;23.70;44.50
64888;DHT22;51386;53.082;8.816;2023-07-02T13:14:11;23.70;45.10
64888;DHT22;51386;53.082;8.816;2023-07-02T13:16:38;23.70;45.30
64888;DHT22;51386;53.082;8.816;2023-07-02T13:19:05;23.70;43.80
64888;DHT22;51386;53.082;8.816;2023-07-02T13:21:32;23.60;43.30
64888;DHT22;51386;53.082;8.816;2023-07-02T13:23:59;23.60;43.10
64888;DHT22;51386;53.082;8.816;2023-07-02T13:26:26;23.60;43.00
64888;DHT22;51386;53.082;8.816;2023-07-02T13:28:54;23.60;43.50
64888;DHT22;51386;53.082;8.816;2023-07-02T13:31:22;23.60;44.10
64888;DHT22;51386;53.082;8.816;2023-07-02T13:33:50;23.60;44.20
64888;DHT22;51386;53.082;8.816;2023-07-02T13:36:17;23.50;44.50
64888;DHT22;51386;53.082;8.816;2023-07-02T13:38:44;23.50;44.20
64888;DHT22;51386;53.082;8.816;2023-07-02T13:41:11;23.50;43.00
64888;DHT22;51386;53.082;8.816;2023-07-02T13:43:38;23.50;42.70
64888;DHT22;51386;53.082;8.816;2023-07-02T13:46:06;23.40;42.90
64888;DHT22;51386;53.082;8.816;2023-07-02T13:48:34;23.40;43.10
64888;DHT22;51386;53.082;8.816;2023-07-02T13:51:01;23.40;42.90
64888;DHT22;51386;53.082;8.816;2023-07-02T13:53:28;23.50;43.00
64888;DHT22;51386;53.082;8.816;2023-07-02T13:55:55;23.50;42.50
64888;DHT22;51386;53.082;8.816;2023-07-02T13:58:22;23.60;42.60
64888;DHT22;51386;53.082;8.816;2023-07-02T14:00:57;23.60;42.90
64888;DHT22;51386;53.082;8.816;2023-07-02T14:03:24;23.50;43.10
64888;DHT22;51386;53.082;8.816;2023-07-02T14:05:51;23.60;43.60
64888;DHT22;51386;53.082;8.816;2023-07-02T14:08:19;23.70;43.90
64888;DHT22;51386;53.082;8.816;2023-07-02T14:10:46;23.70;43.50
64888;DHT22;51386;53.082;8.816;2023-07-02T14:13:13;23.70;43.80
64888;DHT22;51386;53.082;8.816;2023-07-02T14:15:40;23.60;43.30
64888;DHT22;51386;53.082;8.816;2023-07-02T14:18:09;23.60;43.00
64888;DHT22;51386;53.082;8.816;2023-07-02T14:20:36;23.70;43.30
64888;DHT22;51386;53.082;8.816;2023-07-02T14:23:03;23.70;43.20
64888;DHT22;51386;53.082;8.816;2023-07-02T14:25:29;23.70;43.20
64888;DHT22;51386;53.082;8.816;2023-07-02T14:28:06;23.70;42.60
64888;DHT22;51386;53.082;8.816;2023-07-02T14:30:34;23.70;42.50
64888;DHT22;51386;53.082;8.816;2023-07-02T14:33:01;23.60;42.50
64888;DHT22;51386;53.082;8.816;2023-07-02T14:35:30;23.60;42.30
64888;DHT22;51386;53.082;8.816;2023-07-02T14:37:58;23.50;42.30
64888;DHT22;51386;53.082;8.816;2023-07-02T14:40:25;23.50;42.40
64888;DHT22;51386;53.082;8.816;2023-07-02T14:42:53;23.60;42.50
64888;DHT22;51386;53.082;8.816;2023-07-02T14:45:20;23.60;42.60
64888;DHT22;51386;53.082;8.816;2023-07-02T14:47:46;23.70;42.40
64888;DHT22;51386;53.082;8.816;2023-07-02T14:50:14;23.70;41.90
64888;DHT22;51386;53.082;8.816;2023-07-02T14:52:46;23.70;41.90
64888;DHT22;51386;53.082;8.816;2023-07-02T14:55:13;23.70;42.00
64888;DHT22;51386;53.082;8.816;2023-07-02T14:57:40;23.70;42.60
64888;DHT22;51386;53.082;8.816;2023-07-02T15:00:08;23.70;42.40
64888;DHT22;51386;53.082;8.816;2023-07-02T15:02:36;23.60;42.70
64888;DHT22;51386;53.082;8.816;2023-07-02T15:05:03;23.60;43.00
64888;DHT22;51386;53.082;8.816;2023-07-02T15:07:32;23.60;42.40
64888;DHT22;51386;53.082;8.816;2023-07-02T15:10:00;23.60;43.40
64888;DHT22;51386;53.082;8.816;2023-07-02T15:12:27;23.50;42.40
64888;DHT22;51386;53.082;8.816;2023-07-02T15:14:54;23.50;42.80
64888;DHT22;51386;53.082;8.816;2023-07-02T15:17:21;23.40;42.90
64888;DHT22;51386;53.082;8.816;2023-07-02T15:19:49;23.30;43.10
64888;DHT22;51386;53.082;8.816;2023-07-02T15:22:15;23.30;42.70
64888;DHT22;51386;53.082;8.816;2023-07-02T15:24:42;23.30;42.70
64888;DHT22;51386;53.082;8.816;2023-07-02T15:27:11;23.40;42.80
64888;DHT22;51386;53.082;8.816;2023-07-02T15:29:38;23.40;43.00
64888;DHT22;51386;53.082;8.816;2023-07-02T15:32:05;23.40;42.90
64888;DHT22;51386;53.082;8.816;2023-07-02T15:34:32;23.40;42.40